• Join FlightAware (Why Join?)
  • Login
  • US Flag 
04:08AM EDT


 

Airport Tracker/Info


-or-


 

Live Flight TrackerFlight Track Log ✈ EJA922 ✈ 08-Jul-2013 ✈ KOMA - KSUN

Flight Track Log - Related Links

Times and Time Zones

All times are in EDT time to prevent confusion due to time zone crossing. See the EJA922 flight status page for this flight to view local times or setup timezone preferences in your user account.

Time Position Orientation Groundspeed Altitude Reporting Facility
EDT Latitude Longitude Course Direction KTS MPH feet Rate Location/Type
03:32PM 41.2828 -95.8989 185° South 181 208 1,600  Level Minneapolis Center
03:33PM 41.2581 -95.9017 185° South 192 221 2,700 3,060 Climbing Minneapolis Center
03:34PM 41.2136 -96.0111 242° Southwest 252 290 7,700 3,060 Climbing Minneapolis Center
03:35PM 41.1969 -96.1064 257° West 260 299 10,400 1,740 Climbing Minneapolis Center
03:36PM 41.1722 -96.2261 255° West 322 371 11,300 1,320 Climbing Minneapolis Center
03:37PM 41.1783 -96.3561 274° West 353 406 13,200 1,740 Climbing Minneapolis Center
03:38PM 41.1919 -96.4906 278° West 363 418 15,000 1,620 Climbing Minneapolis Center
03:39PM 41.2067 -96.6264 278° West 368 423 16,600 1,380 Climbing Minneapolis Center
03:40PM 41.2219 -96.7664 278° West 378 435 17,900 1,380 Climbing Minneapolis Center
03:41PM 41.2389 -96.9389 277° West 390 449 19,500 1,200 Climbing Minneapolis Center
03:42PM 41.2536 -97.0853 278° West 397 457 20,500 1,140 Climbing Minneapolis Center
03:43PM 41.2692 -97.2319 278° West 400 460 21,900 960 Climbing Minneapolis Center
03:44PM 41.2831 -97.3781 277° West 400 460 22,600 780 Climbing Minneapolis Center
03:45PM 41.2983 -97.5350 277° West 408 470 23,500 780 Climbing Minneapolis Center
03:46PM 41.3133 -97.6889 277° West 416 479 24,200 660 Climbing Minneapolis Center
03:47PM 41.3278 -97.8381 277° West 423 487 24,900 720 Climbing Minneapolis Center
03:49PM 41.3456 -98.0292 277° West 431 496 25,800 720 Climbing Minneapolis Center
03:50PM 41.3617 -98.1953 277° West 437 503 26,400 720 Climbing Minneapolis Center
03:51PM 41.3775 -98.3575 277° West 443 510 27,300 780 Climbing Minneapolis Center
03:52PM 41.3953 -98.5153 279° West 444 511 28,100 720 Climbing Minneapolis Center
03:53PM 41.4144 -98.6772 279° West 443 510 28,900 720 Climbing Minneapolis Center
03:54PM 41.4347 -98.8375 280° West 442 509 29,700 600 Climbing Minneapolis Center
03:55PM 41.4542 -99.0022 279° West 445 512 30,200 600 Climbing Minneapolis Center
03:56PM 41.4803 -99.1992 280° West 451 519 31,000 720 Climbing Minneapolis Center
03:57PM 41.4989 -99.3669 278° West 458 527 31,700 660 Climbing Minneapolis Center
03:58PM 41.5189 -99.5350 279° West 460 529 32,400 660 Climbing Minneapolis Center
03:59PM 41.5372 -99.7044 278° West 462 532 33,100 660 Climbing Minneapolis Center
04:00PM 41.5561 -99.8750 278° West 465 535 33,800 900 Climbing Minneapolis Center
04:01PM 41.5792 -100.0797 279° West 466 536 35,000 1,200 Climbing Minneapolis Center
04:02PM 41.5969 -100.2464 278° West 458 527 36,400 1,320 Climbing Minneapolis Center
04:03PM 41.6133 -100.4083 278° West 449 517 37,800 1,260 Climbing Minneapolis Center
04:04PM 41.6367 -100.6403 278° West 435 501 39,600 840 Climbing Denver Center
04:05PM 41.6553 -100.8208 278° West 441 507 40,000 180 Climbing Denver Center
04:07PM 41.6725 -100.9844 278° West 462 532 40,000  Level Denver Center
04:08PM 41.6917 -101.1797 278° West 477 549 40,000  Level Denver Center
04:09PM 41.7078 -101.3500 277° West 482 555 40,000  Level Denver Center
04:10PM 41.7264 -101.5483 277° West 483 556 40,000  Level Denver Center
04:11PM 41.7433 -101.7169 278° West 480 552 40,000  Level Denver Center
04:12PM 41.7586 -101.8883 277° West 485 558 40,000  Level Denver Center
04:13PM 41.7764 -102.0869 277° West 482 555 40,000  Level Denver Center
04:14PM 41.7944 -102.2767 277° West 487 560 40,000  Level Denver Center
04:15PM 41.8208 -102.4461 282° West 486 559 40,000  Level Denver Center
04:16PM 41.8517 -102.6444 282° West 487 560 40,000  Level Denver Center
04:17PM 41.8756 -102.8142 281° West 484 557 40,000  Level Denver Center
04:18PM 41.9044 -103.0128 281° West 486 559 40,000  Level Denver Center
04:19PM 41.9294 -103.1825 281° West 485 558 40,000  Level Denver Center
04:20PM 41.9564 -103.3808 280° West 483 556 40,000  Level Denver Center
04:21PM 41.9811 -103.5497 281° West 482 555 40,000  Level Denver Center
04:22PM 42.0042 -103.7181 280° West 480 552 40,000  Level Denver Center
04:23PM 42.0306 -103.9153 280° West 479 551 40,000  Level Denver Center
04:24PM 42.0528 -104.0839 280° West 477 549 40,000  Level Denver Center
04:25PM 42.0789 -104.2803 280° West 475 547 40,000  Level Denver Center
04:26PM 42.1006 -104.4492 280° West 475 547 40,000  Level Denver Center
04:27PM 42.1269 -104.6461 280° West 475 547 40,000  Level Denver Center
04:28PM 42.1486 -104.8161 280° West 477 549 40,000  Level Denver Center
04:29PM 42.1703 -104.9844 280° West 475 547 40,000  Level Denver Center
04:30PM 42.1947 -105.1789 280° West 471 542 40,000  Level Denver Center
04:31PM 42.2153 -105.3450 280° West 468 539 40,000  Level Denver Center
04:32PM 42.2386 -105.5386 279° West 466 536 40,000  Level Denver Center
04:33PM 42.2578 -105.7019 279° West 461 531 40,000  Level Denver Center
04:34PM 42.2808 -105.8969 279° West 468 539 40,000  Level Denver Center
04:35PM 42.3008 -106.0606 279° West 464 534 40,000  Level Denver Center
04:36PM 42.3186 -106.2214 279° West 455 524 40,000  Level Denver Center
04:37PM 42.3414 -106.4122 279° West 457 526 40,000  Level Denver Center
04:38PM 42.3592 -106.5728 279° West 454 522 40,000  Level Denver Center
04:40PM 42.3789 -106.7594 278° West 449 517 40,000  Level Denver Center
04:41PM 42.3997 -106.9392 279° West 455 524 40,000  Level Denver Center
04:42PM 42.4169 -107.1006 278° West 454 522 40,000  Level Denver Center
04:43PM 42.4336 -107.2617 278° West 454 522 40,000  Level Denver Center
04:44PM 42.4544 -107.4506 279° West 455 524 40,000  Level Denver Center
04:45PM 42.4711 -107.6117 278° West 454 522 40,000  Level Denver Center
04:46PM 42.4892 -107.8000 277° West 454 522 40,000  Level Denver Center
04:47PM 42.5131 -108.0450 278° West 456 525 40,000  Level Salt Lake Center
04:48PM 42.5289 -108.2061 278° West 453 521 40,000  Level Salt Lake Center
04:49PM 42.5469 -108.3986 277° West 460 529 40,000  Level Salt Lake Center
04:50PM 42.5628 -108.5606 278° West 457 526 40,000  Level Salt Lake Center
04:51PM 42.5808 -108.7506 277° West 457 526 40,000  Level Salt Lake Center
04:52PM 42.5953 -108.9122 277° West 455 524 40,000  Level Salt Lake Center
04:53PM 42.6114 -109.1000 277° West 451 519 40,000  Level Salt Lake Center
04:54PM 42.6256 -109.2617 277° West 452 520 40,000  Level Salt Lake Center
04:55PM 42.6400 -109.4236 277° West 453 521 40,000  Level Salt Lake Center
04:56PM 42.6556 -109.6144 276° West 456 525 40,000  Level Salt Lake Center
04:57PM 42.6689 -109.7744 277° West 450 518 40,000  Level Salt Lake Center
04:58PM 42.6847 -109.9658 276° West 455 524 40,000  Level Salt Lake Center
04:59PM 42.6983 -110.1281 277° West 453 521 40,000  Level Salt Lake Center
05:01PM 42.7122 -110.3069 276° West 455 524 40,000  Level Salt Lake Center
05:02PM 42.7269 -110.4983 276° West 455 524 40,000  Level Salt Lake Center
05:03PM 42.7394 -110.6619 276° West 454 522 40,000  Level Salt Lake Center
05:04PM 42.7519 -110.8272 276° West 458 527 40,000 -240 Level Salt Lake Center
05:05PM 42.7647 -111.0197 275° West 457 526 39,600 -720 Descending Salt Lake Center
05:06PM 42.7772 -111.1831 276° West 454 522 38,600 -1,200 Descending Salt Lake Center
05:07PM 42.7906 -111.3708 276° West 449 517 37,200 -1,320 Descending Salt Lake Center
05:08PM 42.8008 -111.5328 275° West 448 516 35,900 -1,380 Descending Salt Lake Center
05:09PM 42.8136 -111.7278 275° West 461 531 34,400 -1,440 Descending Salt Lake Center
05:10PM 42.8247 -111.8975 275° West 467 537 33,000 -1,500 Descending Salt Lake Center
05:11PM 42.8364 -112.0656 275° West 465 535 31,400 -1,680 Descending Salt Lake Center
05:12PM 42.8486 -112.2700 275° West 482 555 29,600 -1,620 Descending Salt Lake Center
05:13PM 42.8575 -112.4475 274° West 489 563 28,200 -1,560 Descending Salt Lake Center
05:14PM 42.8722 -112.6467 276° West 475 547 26,500 -1,800 Descending Salt Lake Center
05:15PM 42.9042 -112.8142 285° West 476 548 24,600 -2,100 Descending Salt Lake Center
05:16PM 42.9431 -113.0019 286° West 465 535 22,200 -2,160 Descending Salt Lake Center
05:17PM 42.9756 -113.1597 286° West 456 525 20,200 -1,980 Descending Salt Lake Center
05:18PM 43.0069 -113.3097 286° West 440 506 18,200 -1,860 Descending Salt Lake Center
05:19PM 43.0406 -113.4794 285° West 423 487 16,400 -1,140 Descending Salt Lake Center
05:20PM 43.0694 -113.6200 286° West 409 471 15,900 -900 Descending Salt Lake Center
05:21PM 43.1019 -113.7825 285° West 400 460 14,600 -1,500 Descending Salt Lake Center
05:22PM 43.1339 -113.9247 287° West 392 451 12,900 -1,620 Descending Salt Lake Center
05:23PM 43.1997 -114.0347 309° West 358 412 11,300 -960 Descending Salt Lake Center
05:24PM 43.2547 -114.1300 308° West 317 365 11,000 -240 Descending Salt Lake Center
05:25PM 43.3111 -114.1989 318° Northwest 272 313 10,900 -120 Descending Salt Lake Center
05:27PM 43.4417 -114.2739 345° North  Level FlightAware Approximate
05:34PM 43.5000 -114.2833 North  Level FlightAware Approximate
05:35PM 43.5038 -114.2956 North  Level Estimated
05:36PM 43.5038 -114.2956 North  Level Estimated